createdAt,value
2019-03-24T00:04:00.115Z,43.28
2019-03-24T00:09:06.912Z,51.02
2019-03-24T00:14:11.024Z,44.00
2019-03-24T00:19:15.167Z,32.58
2019-03-24T00:24:19.300Z,37.63
2019-03-24T00:29:23.596Z,43.23
2019-03-24T00:34:27.768Z,52.23
2019-03-24T00:39:32.097Z,46.45
2019-03-24T00:44:36.976Z,41.28
2019-03-24T00:49:43.657Z,50.25
2019-03-24T00:54:48.972Z,49.23
2019-03-24T00:59:54.448Z,47.83
2019-03-24T01:04:59.777Z,55.43
2019-03-24T01:10:05.137Z,41.77
2019-03-24T01:15:09.760Z,53.80
2019-03-24T01:20:16.078Z,50.78
2019-03-24T01:25:20.414Z,53.63
2019-03-24T01:30:24.782Z,63.30
2019-03-24T01:35:30.420Z,49.63
2019-03-24T01:40:34.929Z,63.52
2019-03-24T01:45:39.848Z,64.55
2019-03-24T01:50:44.784Z,62.33
2019-03-24T01:55:49.727Z,68.35
2019-03-24T02:00:55.472Z,64.27
2019-03-24T02:05:59.753Z,66.77
2019-03-24T02:11:04.298Z,67.60
2019-03-24T02:16:09.830Z,65.60
2019-03-24T02:21:14.503Z,65.57
2019-03-24T02:26:19.029Z,58.05
2019-03-24T02:31:23.148Z,57.35
2019-03-24T02:36:29.477Z,66.53
2019-03-24T02:41:33.921Z,53.52
2019-03-24T02:46:40.565Z,68.75
2019-03-24T02:51:45.690Z,72.50
2019-03-24T02:56:50.974Z,62.00
2019-03-24T03:01:56.283Z,68.72
2019-03-24T03:07:01.339Z,54.00
2019-03-24T03:12:08.283Z,57.03
2019-03-24T03:17:13.727Z,71.05
2019-03-24T03:22:18.756Z,78.75
2019-03-24T03:27:24.573Z,75.92
2019-03-24T03:32:29.709Z,66.30
2019-03-24T03:37:33.904Z,58.52
2019-03-24T03:42:38.551Z,89.85
2019-03-24T03:47:43.392Z,84.17
2019-03-24T03:52:47.918Z,78.92
2019-03-24T03:57:52.621Z,65.75
2019-03-24T04:02:58.536Z,76.65
2019-03-24T04:08:02.960Z,75.97
2019-03-24T04:13:07.178Z,92.33
2019-03-24T04:18:11.274Z,86.65
2019-03-24T04:23:16.866Z,94.03
2019-03-24T04:28:22.245Z,92.27
2019-03-24T04:33:26.511Z,92.20
2019-03-24T04:38:32.284Z,99.40
2019-03-24T04:43:38.195Z,96.40
2019-03-24T04:48:42.668Z,94.32
2019-03-24T04:53:48.011Z,93.22
2019-03-24T04:58:52.222Z,85.53
2019-03-24T05:03:56.702Z,88.95
2019-03-24T05:09:02.341Z,93.90
2019-03-24T05:14:06.839Z,87.92
2019-03-24T05:19:11.892Z,103.30
2019-03-24T05:24:15.990Z,89.05
2019-03-24T05:29:20.532Z,83.80
2019-03-24T05:34:24.648Z,96.78
2019-03-24T05:39:30.594Z,80.87
2019-03-24T05:44:34.686Z,100.12
2019-03-24T05:49:41.750Z,88.62
2019-03-24T05:54:47.070Z,92.40
2019-03-24T05:59:51.879Z,97.85
2019-03-24T06:04:56.701Z,84.70
2019-03-24T06:10:00.820Z,94.83
2019-03-24T06:15:07.028Z,91.15
2019-03-24T06:20:12.317Z,78.78
2019-03-24T06:25:16.848Z,75.87
2019-03-24T06:30:24.853Z,95.12
2019-03-24T06:35:29.092Z,74.62
2019-03-24T06:40:33.244Z,63.95
2019-03-24T06:45:37.364Z,56.88
2019-03-24T06:50:42.606Z,47.88
2019-03-24T06:55:48.845Z,54.00
2019-03-24T07:00:55.006Z,49.58
2019-03-24T07:06:00.680Z,43.33
2019-03-24T07:11:10.514Z,36.38
2019-03-24T07:16:10.921Z,32.05
2019-03-24T07:21:15.029Z,38.67
2019-03-24T07:26:19.161Z,34.20
2019-03-24T07:31:26.054Z,22.07
2019-03-24T07:36:30.173Z,16.80
2019-03-24T07:41:34.339Z,18.70
2019-03-24T07:46:41.675Z,19.87
2019-03-24T07:51:45.806Z,16.85
2019-03-24T07:56:50.078Z,15.70
2019-03-24T08:01:54.656Z,9.85
2019-03-24T08:06:59.709Z,20.32
2019-03-24T08:12:03.824Z,23.25
2019-03-24T08:17:09.059Z,20.05
2019-03-24T08:22:14.253Z,18.62
2019-03-24T08:27:19.246Z,17.30
2019-03-24T08:32:23.976Z,12.20
2019-03-24T08:37:28.103Z,12.70
2019-03-24T08:42:32.388Z,16.87
2019-03-24T08:47:36.802Z,15.88
2019-03-24T08:52:41.327Z,18.82
2019-03-24T08:57:46.352Z,15.70
2019-03-24T09:02:50.940Z,19.17
2019-03-24T09:07:56.596Z,14.35
2019-03-24T09:13:01.452Z,18.60
2019-03-24T09:18:06.814Z,18.35
2019-03-24T09:23:11.042Z,14.30
2019-03-24T09:28:15.427Z,21.35
2019-03-24T09:33:20.496Z,18.67
2019-03-24T09:38:26.363Z,14.78
2019-03-24T09:43:32.736Z,16.52
2019-03-24T09:48:37.429Z,14.20
2019-03-24T09:53:41.559Z,11.95
2019-03-24T09:58:46.549Z,11.73
2019-03-24T10:03:51.029Z,12.37
2019-03-24T10:08:58.400Z,16.87
2019-03-24T10:14:04.292Z,11.63
2019-03-24T10:19:13.848Z,7.00
2019-03-24T10:24:14.992Z,8.85
2019-03-24T10:29:19.121Z,11.65
2019-03-24T10:34:24.636Z,8.60
2019-03-24T10:39:32.398Z,11.53
2019-03-24T10:44:37.405Z,8.98
2019-03-24T10:49:41.506Z,6.65
2019-03-24T10:54:46.424Z,7.70
2019-03-24T10:59:50.582Z,11.70
2019-03-24T11:04:54.733Z,15.48
2019-03-24T11:09:59.640Z,10.60
2019-03-24T11:15:05.195Z,12.03
2019-03-24T11:20:11.181Z,11.38
2019-03-24T11:30:20.732Z,9.28
2019-03-24T11:35:25.787Z,16.05
2019-03-24T11:40:30.965Z,11.38
2019-03-24T11:45:36.438Z,6.60
2019-03-24T11:50:41.631Z,7.60
2019-03-24T11:55:45.966Z,5.70
2019-03-24T12:00:51.043Z,6.95
2019-03-24T12:05:55.868Z,9.08
2019-03-24T12:11:00.102Z,9.10
2019-03-24T12:16:04.610Z,3.45
2019-03-24T12:21:10.256Z,7.95
2019-03-24T12:26:15.566Z,5.53
2019-03-24T12:31:19.665Z,6.47
2019-03-24T12:36:24.167Z,10.60
2019-03-24T12:41:28.573Z,7.90
2019-03-24T12:46:33.015Z,7.72
2019-03-24T12:51:37.746Z,2.47
2019-03-24T12:56:41.986Z,12.65
2019-03-24T13:01:46.423Z,6.05
2019-03-24T13:06:50.737Z,10.18
2019-03-24T13:11:55.205Z,5.22
2019-03-24T13:16:59.310Z,9.35
2019-03-24T13:22:04.563Z,9.00
2019-03-24T13:27:08.904Z,6.72
2019-03-24T13:32:13.019Z,8.18
2019-03-24T13:37:19.107Z,12.37
2019-03-24T13:42:23.313Z,3.83
2019-03-24T13:47:28.730Z,9.90
2019-03-24T13:52:33.682Z,9.35
2019-03-24T13:57:38.954Z,6.08
2019-03-24T14:02:43.057Z,7.58
2019-03-24T14:07:47.735Z,4.03
2019-03-24T14:12:52.044Z,5.03
2019-03-24T14:17:56.575Z,7.10
2019-03-24T14:23:03.337Z,4.53
2019-03-24T14:28:08.378Z,7.12
2019-03-24T14:33:13.491Z,5.25
2019-03-24T14:38:17.986Z,9.40
2019-03-24T14:43:23.420Z,9.63
2019-03-24T14:48:28.737Z,10.08
2019-03-24T14:53:34.730Z,7.75
2019-03-24T14:58:39.280Z,8.20
2019-03-24T15:03:43.292Z,4.25
2019-03-24T15:08:47.581Z,4.60
2019-03-24T15:13:51.596Z,7.05
2019-03-24T15:18:56.550Z,5.05
2019-03-24T15:24:02.020Z,7.55
2019-03-24T15:29:07.844Z,7.12
2019-03-24T15:34:12.202Z,5.72
2019-03-24T15:39:17.450Z,6.50
2019-03-24T15:44:24.839Z,6.20
2019-03-24T15:49:28.939Z,6.78
2019-03-24T15:54:36.856Z,4.58
2019-03-24T15:59:41.917Z,6.28
2019-03-24T16:04:46.285Z,6.22
2019-03-24T16:09:52.426Z,5.75
2019-03-24T16:14:56.585Z,8.65
2019-03-24T16:20:01.361Z,5.83
2019-03-24T16:25:06.337Z,7.15
2019-03-24T16:30:14.985Z,9.53
2019-03-24T16:35:20.179Z,9.98
2019-03-24T16:40:27.871Z,5.70
2019-03-24T16:45:33.305Z,9.93
2019-03-24T16:50:39.037Z,9.73
2019-03-24T16:55:43.229Z,8.05
2019-03-24T17:00:47.830Z,6.50
2019-03-24T17:05:52.673Z,9.88
2019-03-24T17:10:56.981Z,9.15
2019-03-24T17:16:01.160Z,9.28
2019-03-24T17:21:06.567Z,7.58
2019-03-24T17:26:10.899Z,12.63
2019-03-24T17:31:15.969Z,13.10
2019-03-24T17:36:20.195Z,7.00
2019-03-24T17:41:24.519Z,12.07
2019-03-24T17:46:29.285Z,9.60
2019-03-24T17:51:33.815Z,14.45
2019-03-24T17:56:37.788Z,11.43
2019-03-24T18:01:41.789Z,17.35
2019-03-24T18:06:46.959Z,17.10
2019-03-24T18:11:51.925Z,16.62
2019-03-24T18:16:56.302Z,15.38
2019-03-24T18:22:11.079Z,18.10
2019-03-24T18:27:07.843Z,29.57
2019-03-24T18:32:11.992Z,23.92
2019-03-24T18:37:16.297Z,20.02
2019-03-24T18:42:21.302Z,24.82
2019-03-24T18:47:26.445Z,24.35
2019-03-24T18:52:30.917Z,37.98
2019-03-24T18:57:35.928Z,79.05
2019-03-24T19:02:40.914Z,88.50
2019-03-24T19:07:45.855Z,88.52
2019-03-24T19:12:51.806Z,77.80
2019-03-24T19:17:57.479Z,59.77
2019-03-24T19:23:01.656Z,40.67
2019-03-24T19:28:05.776Z,36.83
2019-03-24T19:33:09.958Z,29.27
2019-03-24T19:38:14.600Z,35.25
2019-03-24T19:43:19.077Z,35.58
2019-03-24T19:48:34.451Z,43.17
2019-03-24T19:53:40.297Z,40.37
2019-03-24T19:58:45.279Z,32.10
2019-03-24T20:03:50.315Z,35.98
2019-03-24T20:08:54.551Z,30.72
2019-03-24T20:13:59.416Z,24.95
2019-03-24T20:19:06.982Z,31.30
2019-03-24T20:24:12.644Z,47.60
2019-03-24T20:29:17.236Z,45.03
2019-03-24T20:34:22.977Z,43.68
2019-03-24T20:39:27.789Z,53.63
2019-03-24T20:44:32.346Z,47.78
2019-03-24T20:49:38.660Z,96.55
2019-03-24T20:54:44.377Z,91.67
2019-03-24T20:59:48.553Z,89.05
2019-03-24T21:04:52.549Z,105.03
2019-03-24T21:09:56.495Z,93.03
2019-03-24T21:15:00.386Z,113.95
2019-03-24T21:20:05.297Z,112.57
2019-03-24T21:25:09.615Z,113.72
2019-03-24T21:30:14.668Z,125.72
2019-03-24T21:35:24.779Z,118.97
2019-03-24T21:40:32.432Z,120.97
2019-03-24T21:45:37.020Z,118.72
2019-03-24T21:50:46.839Z,116.12
2019-03-24T21:55:51.724Z,125.58
2019-03-24T22:00:56.865Z,129.97
2019-03-24T22:06:01.065Z,142.03
2019-03-24T22:11:09.235Z,132.40
2019-03-24T22:16:14.617Z,130.97
2019-03-24T22:21:19.704Z,137.00
2019-03-24T22:26:23.818Z,151.02
2019-03-24T22:31:28.225Z,119.50
2019-03-24T22:36:32.950Z,133.43
2019-03-24T22:41:37.056Z,110.75
2019-03-24T22:46:41.692Z,121.05
2019-03-24T22:51:46.073Z,123.05
2019-03-24T22:56:50.883Z,119.42
2019-03-24T23:01:56.479Z,120.57
2019-03-24T23:07:02.749Z,126.30
2019-03-24T23:12:06.936Z,124.72
2019-03-24T23:17:11.236Z,130.27
2019-03-24T23:22:15.466Z,129.57
2019-03-24T23:27:19.610Z,115.35
2019-03-24T23:32:23.998Z,113.52
2019-03-24T23:37:28.427Z,120.85
2019-03-24T23:42:33.172Z,132.03
2019-03-24T23:47:37.830Z,126.70
2019-03-24T23:52:42.580Z,132.95
2019-03-24T23:57:46.724Z,151.80
